sensor_id;sensor_type;location;lat;lon;timestamp;P1;durP1;ratioP1;P2;durP2;ratioP2
32501;SDS011;18952;52.516;13.460;2024-01-10T00:02:12;97.50;;;69.70;;
32501;SDS011;18952;52.516;13.460;2024-01-10T00:04:39;94.15;;;67.60;;
32501;SDS011;18952;52.516;13.460;2024-01-10T00:07:06;98.72;;;68.80;;
32501;SDS011;18952;52.516;13.460;2024-01-10T00:09:33;105.30;;;69.15;;
32501;SDS011;18952;52.516;13.460;2024-01-10T00:12:00;98.47;;;69.53;;
32501;SDS011;18952;52.516;13.460;2024-01-10T00:14:27;98.43;;;69.85;;
32501;SDS011;18952;52.516;13.460;2024-01-10T00:16:54;102.22;;;69.03;;
32501;SDS011;18952;52.516;13.460;2024-01-10T00:19:21;96.88;;;69.10;;
32501;SDS011;18952;52.516;13.460;2024-01-10T00:21:48;101.82;;;70.57;;
32501;SDS011;18952;52.516;13.460;2024-01-10T00:24:19;102.97;;;70.30;;
32501;SDS011;18952;52.516;13.460;2024-01-10T00:26:46;102.78;;;71.72;;
32501;SDS011;18952;52.516;13.460;2024-01-10T00:29:13;100.90;;;69.65;;
32501;SDS011;18952;52.516;13.460;2024-01-10T00:31:40;96.50;;;69.43;;
32501;SDS011;18952;52.516;13.460;2024-01-10T00:34:09;106.18;;;70.53;;
32501;SDS011;18952;52.516;13.460;2024-01-10T00:36:39;102.53;;;69.60;;
32501;SDS011;18952;52.516;13.460;2024-01-10T00:39:09;98.22;;;69.88;;
32501;SDS011;18952;52.516;13.460;2024-01-10T00:41:40;100.53;;;69.90;;
32501;SDS011;18952;52.516;13.460;2024-01-10T00:44:09;106.57;;;71.25;;
32501;SDS011;18952;52.516;13.460;2024-01-10T00:46:38;106.10;;;70.90;;
32501;SDS011;18952;52.516;13.460;2024-01-10T00:49:10;101.10;;;68.80;;
32501;SDS011;18952;52.516;13.460;2024-01-10T00:51:37;103.95;;;69.25;;
32501;SDS011;18952;52.516;13.460;2024-01-10T00:54:05;100.70;;;70.40;;
32501;SDS011;18952;52.516;13.460;2024-01-10T00:56:33;104.20;;;71.80;;
32501;SDS011;18952;52.516;13.460;2024-01-10T00:59:02;101.17;;;70.67;;
32501;SDS011;18952;52.516;13.460;2024-01-10T01:01:29;106.95;;;70.47;;
32501;SDS011;18952;52.516;13.460;2024-01-10T01:04:00;102.80;;;71.53;;
32501;SDS011;18952;52.516;13.460;2024-01-10T01:06:27;99.80;;;70.23;;
32501;SDS011;18952;52.516;13.460;2024-01-10T01:08:56;106.55;;;71.43;;
32501;SDS011;18952;52.516;13.460;2024-01-10T01:11:23;106.35;;;71.93;;
32501;SDS011;18952;52.516;13.460;2024-01-10T01:13:51;102.90;;;70.88;;
32501;SDS011;18952;52.516;13.460;2024-01-10T01:16:18;104.55;;;70.35;;
32501;SDS011;18952;52.516;13.460;2024-01-10T01:18:46;103.80;;;70.15;;
32501;SDS011;18952;52.516;13.460;2024-01-10T01:21:13;97.88;;;69.13;;
32501;SDS011;18952;52.516;13.460;2024-01-10T01:23:40;102.60;;;68.97;;
32501;SDS011;18952;52.516;13.460;2024-01-10T01:26:09;104.30;;;68.68;;
32501;SDS011;18952;52.516;13.460;2024-01-10T01:28:36;105.65;;;68.65;;
32501;SDS011;18952;52.516;13.460;2024-01-10T01:31:04;102.75;;;67.15;;
32501;SDS011;18952;52.516;13.460;2024-01-10T01:33:32;103.63;;;68.38;;
32501;SDS011;18952;52.516;13.460;2024-01-10T01:36:01;106.25;;;69.18;;
32501;SDS011;18952;52.516;13.460;2024-01-10T01:38:29;100.40;;;67.45;;
32501;SDS011;18952;52.516;13.460;2024-01-10T01:40:57;99.90;;;66.83;;
32501;SDS011;18952;52.516;13.460;2024-01-10T01:43:26;93.80;;;66.70;;
32501;SDS011;18952;52.516;13.460;2024-01-10T01:45:54;97.38;;;67.15;;
32501;SDS011;18952;52.516;13.460;2024-01-10T01:48:23;93.47;;;66.25;;
32501;SDS011;18952;52.516;13.460;2024-01-10T01:50:56;91.53;;;64.50;;
32501;SDS011;18952;52.516;13.460;2024-01-10T01:53:26;98.82;;;65.82;;
32501;SDS011;18952;52.516;13.460;2024-01-10T01:55:56;91.23;;;63.20;;
32501;SDS011;18952;52.516;13.460;2024-01-10T01:58:23;96.47;;;65.63;;
32501;SDS011;18952;52.516;13.460;2024-01-10T02:00:51;97.25;;;64.15;;
32501;SDS011;18952;52.516;13.460;2024-01-10T02:03:19;97.68;;;65.40;;
32501;SDS011;18952;52.516;13.460;2024-01-10T02:05:47;98.43;;;65.50;;
32501;SDS011;18952;52.516;13.460;2024-01-10T02:08:17;99.93;;;67.13;;
32501;SDS011;18952;52.516;13.460;2024-01-10T02:10:45;98.47;;;67.03;;
32501;SDS011;18952;52.516;13.460;2024-01-10T02:13:12;103.07;;;69.22;;
32501;SDS011;18952;52.516;13.460;2024-01-10T02:15:41;92.43;;;67.18;;
32501;SDS011;18952;52.516;13.460;2024-01-10T02:18:10;95.30;;;67.88;;
32501;SDS011;18952;52.516;13.460;2024-01-10T02:20:42;91.60;;;67.03;;
32501;SDS011;18952;52.516;13.460;2024-01-10T02:23:13;99.60;;;67.85;;
32501;SDS011;18952;52.516;13.460;2024-01-10T02:25:40;99.75;;;67.43;;
32501;SDS011;18952;52.516;13.460;2024-01-10T02:28:08;98.70;;;68.00;;
32501;SDS011;18952;52.516;13.460;2024-01-10T02:30:39;92.07;;;66.38;;
32501;SDS011;18952;52.516;13.460;2024-01-10T02:33:08;96.03;;;67.13;;
32501;SDS011;18952;52.516;13.460;2024-01-10T02:35:37;101.32;;;66.63;;
32501;SDS011;18952;52.516;13.460;2024-01-10T02:38:05;93.35;;;65.75;;
32501;SDS011;18952;52.516;13.460;2024-01-10T02:40:33;101.68;;;67.30;;
32501;SDS011;18952;52.516;13.460;2024-01-10T02:43:00;101.95;;;67.10;;
32501;SDS011;18952;52.516;13.460;2024-01-10T02:45:29;101.95;;;67.53;;
32501;SDS011;18952;52.516;13.460;2024-01-10T02:47:56;105.32;;;68.05;;
32501;SDS011;18952;52.516;13.460;2024-01-10T02:50:23;92.28;;;67.03;;
32501;SDS011;18952;52.516;13.460;2024-01-10T02:52:50;102.78;;;67.10;;
32501;SDS011;18952;52.516;13.460;2024-01-10T02:55:18;95.68;;;66.00;;
32501;SDS011;18952;52.516;13.460;2024-01-10T02:57:48;95.85;;;66.63;;
32501;SDS011;18952;52.516;13.460;2024-01-10T03:00:18;94.05;;;66.13;;
32501;SDS011;18952;52.516;13.460;2024-01-10T03:02:49;99.47;;;66.10;;
32501;SDS011;18952;52.516;13.460;2024-01-10T03:05:19;97.05;;;66.85;;
32501;SDS011;18952;52.516;13.460;2024-01-10T03:07:47;102.10;;;65.30;;
32501;SDS011;18952;52.516;13.460;2024-01-10T03:10:15;94.53;;;65.93;;
32501;SDS011;18952;52.516;13.460;2024-01-10T03:12:43;95.78;;;66.47;;
32501;SDS011;18952;52.516;13.460;2024-01-10T03:15:11;104.43;;;67.57;;
32501;SDS011;18952;52.516;13.460;2024-01-10T03:17:40;102.15;;;67.25;;
32501;SDS011;18952;52.516;13.460;2024-01-10T03:20:07;102.03;;;68.40;;
32501;SDS011;18952;52.516;13.460;2024-01-10T03:22:36;99.60;;;69.40;;
32501;SDS011;18952;52.516;13.460;2024-01-10T03:25:03;98.07;;;68.05;;
32501;SDS011;18952;52.516;13.460;2024-01-10T03:27:31;100.10;;;68.63;;
32501;SDS011;18952;52.516;13.460;2024-01-10T03:29:58;102.05;;;69.60;;
32501;SDS011;18952;52.516;13.460;2024-01-10T03:32:25;105.05;;;69.03;;
32501;SDS011;18952;52.516;13.460;2024-01-10T03:34:56;103.90;;;68.53;;
32501;SDS011;18952;52.516;13.460;2024-01-10T03:37:26;99.72;;;69.93;;
32501;SDS011;18952;52.516;13.460;2024-01-10T03:39:54;99.55;;;70.47;;
32501;SDS011;18952;52.516;13.460;2024-01-10T03:42:21;97.72;;;68.20;;
32501;SDS011;18952;52.516;13.460;2024-01-10T03:44:49;105.43;;;70.85;;
32501;SDS011;18952;52.516;13.460;2024-01-10T03:47:16;102.72;;;71.32;;
32501;SDS011;18952;52.516;13.460;2024-01-10T03:49:44;100.93;;;70.82;;
32501;SDS011;18952;52.516;13.460;2024-01-10T03:52:12;104.90;;;71.35;;
32501;SDS011;18952;52.516;13.460;2024-01-10T03:54:41;109.00;;;74.05;;
32501;SDS011;18952;52.516;13.460;2024-01-10T03:57:08;106.80;;;73.00;;
32501;SDS011;18952;52.516;13.460;2024-01-10T03:59:35;97.70;;;70.18;;
32501;SDS011;18952;52.516;13.460;2024-01-10T04:02:01;105.80;;;72.97;;
32501;SDS011;18952;52.516;13.460;2024-01-10T04:04:30;106.95;;;72.35;;
32501;SDS011;18952;52.516;13.460;2024-01-10T04:06:57;101.30;;;72.78;;
32501;SDS011;18952;52.516;13.460;2024-01-10T04:09:25;94.35;;;70.80;;
32501;SDS011;18952;52.516;13.460;2024-01-10T04:11:53;103.53;;;70.63;;
32501;SDS011;18952;52.516;13.460;2024-01-10T04:14:22;102.80;;;71.25;;
32501;SDS011;18952;52.516;13.460;2024-01-10T04:16:49;99.88;;;70.35;;
32501;SDS011;18952;52.516;13.460;2024-01-10T04:19:18;98.40;;;70.30;;
32501;SDS011;18952;52.516;13.460;2024-01-10T04:21:46;102.30;;;70.32;;
32501;SDS011;18952;52.516;13.460;2024-01-10T04:24:15;102.13;;;69.22;;
32501;SDS011;18952;52.516;13.460;2024-01-10T04:26:42;100.80;;;69.30;;
32501;SDS011;18952;52.516;13.460;2024-01-10T04:29:12;100.68;;;69.53;;
32501;SDS011;18952;52.516;13.460;2024-01-10T04:31:41;101.15;;;69.85;;
32501;SDS011;18952;52.516;13.460;2024-01-10T04:34:12;98.60;;;68.75;;
32501;SDS011;18952;52.516;13.460;2024-01-10T04:36:41;100.43;;;69.13;;
32501;SDS011;18952;52.516;13.460;2024-01-10T04:39:09;106.22;;;70.53;;
32501;SDS011;18952;52.516;13.460;2024-01-10T04:41:38;108.35;;;70.63;;
32501;SDS011;18952;52.516;13.460;2024-01-10T04:44:06;96.40;;;67.97;;
32501;SDS011;18952;52.516;13.460;2024-01-10T04:46:33;103.60;;;69.20;;
32501;SDS011;18952;52.516;13.460;2024-01-10T04:49:02;105.82;;;70.10;;
32501;SDS011;18952;52.516;13.460;2024-01-10T04:51:29;96.90;;;68.15;;
32501;SDS011;18952;52.516;13.460;2024-01-10T04:53:57;103.85;;;69.93;;
32501;SDS011;18952;52.516;13.460;2024-01-10T04:56:25;96.93;;;68.95;;
32501;SDS011;18952;52.516;13.460;2024-01-10T04:58:54;104.32;;;69.68;;
32501;SDS011;18952;52.516;13.460;2024-01-10T05:01:21;101.82;;;70.43;;
32501;SDS011;18952;52.516;13.460;2024-01-10T05:03:50;103.20;;;67.82;;
32501;SDS011;18952;52.516;13.460;2024-01-10T05:06:16;106.20;;;68.93;;
32501;SDS011;18952;52.516;13.460;2024-01-10T05:08:46;100.63;;;68.25;;
32501;SDS011;18952;52.516;13.460;2024-01-10T05:11:15;104.32;;;69.45;;
32501;SDS011;18952;52.516;13.460;2024-01-10T05:13:42;98.38;;;69.22;;
32501;SDS011;18952;52.516;13.460;2024-01-10T05:16:11;106.80;;;71.00;;
32501;SDS011;18952;52.516;13.460;2024-01-10T05:18:38;101.32;;;69.05;;
32501;SDS011;18952;52.516;13.460;2024-01-10T05:21:05;109.47;;;70.38;;
32501;SDS011;18952;52.516;13.460;2024-01-10T05:23:37;104.30;;;69.38;;
32501;SDS011;18952;52.516;13.460;2024-01-10T05:26:05;102.55;;;70.45;;
32501;SDS011;18952;52.516;13.460;2024-01-10T05:28:33;101.93;;;71.10;;
32501;SDS011;18952;52.516;13.460;2024-01-10T05:31:00;96.47;;;68.20;;
32501;SDS011;18952;52.516;13.460;2024-01-10T05:33:29;103.28;;;70.20;;
32501;SDS011;18952;52.516;13.460;2024-01-10T05:35:57;101.13;;;69.38;;
32501;SDS011;18952;52.516;13.460;2024-01-10T05:38:24;103.95;;;70.03;;
32501;SDS011;18952;52.516;13.460;2024-01-10T05:40:52;101.07;;;69.05;;
32501;SDS011;18952;52.516;13.460;2024-01-10T05:43:19;101.45;;;71.10;;
32501;SDS011;18952;52.516;13.460;2024-01-10T05:45:47;99.20;;;69.72;;
32501;SDS011;18952;52.516;13.460;2024-01-10T05:48:14;102.35;;;71.68;;
32501;SDS011;18952;52.516;13.460;2024-01-10T05:50:42;105.85;;;72.57;;
32501;SDS011;18952;52.516;13.460;2024-01-10T05:56:08;104.22;;;73.32;;
32501;SDS011;18952;52.516;13.460;2024-01-10T05:58:36;111.88;;;72.80;;
32501;SDS011;18952;52.516;13.460;2024-01-10T06:01:03;115.80;;;73.03;;
32501;SDS011;18952;52.516;13.460;2024-01-10T06:03:30;109.85;;;74.00;;
32501;SDS011;18952;52.516;13.460;2024-01-10T06:05:57;111.32;;;72.53;;
32501;SDS011;18952;52.516;13.460;2024-01-10T06:08:25;112.50;;;73.18;;
32501;SDS011;18952;52.516;13.460;2024-01-10T06:10:54;103.90;;;70.93;;
32501;SDS011;18952;52.516;13.460;2024-01-10T06:13:21;104.33;;;73.73;;
32501;SDS011;18952;52.516;13.460;2024-01-10T06:15:49;106.88;;;71.35;;
32501;SDS011;18952;52.516;13.460;2024-01-10T06:18:16;105.43;;;71.67;;
32501;SDS011;18952;52.516;13.460;2024-01-10T06:20:44;107.03;;;71.68;;
32501;SDS011;18952;52.516;13.460;2024-01-10T06:23:11;101.70;;;70.63;;
32501;SDS011;18952;52.516;13.460;2024-01-10T06:25:38;102.70;;;69.45;;
32501;SDS011;18952;52.516;13.460;2024-01-10T06:28:05;102.78;;;71.07;;
32501;SDS011;18952;52.516;13.460;2024-01-10T06:30:32;98.88;;;70.07;;
32501;SDS011;18952;52.516;13.460;2024-01-10T06:33:00;103.65;;;69.38;;
32501;SDS011;18952;52.516;13.460;2024-01-10T06:35:29;112.57;;;73.57;;
32501;SDS011;18952;52.516;13.460;2024-01-10T06:37:56;100.90;;;68.93;;
32501;SDS011;18952;52.516;13.460;2024-01-10T06:40:24;104.43;;;71.55;;
32501;SDS011;18952;52.516;13.460;2024-01-10T06:42:51;98.40;;;70.23;;
32501;SDS011;18952;52.516;13.460;2024-01-10T06:45:19;109.50;;;72.70;;
32501;SDS011;18952;52.516;13.460;2024-01-10T06:47:46;112.20;;;71.70;;
32501;SDS011;18952;52.516;13.460;2024-01-10T06:50:14;103.68;;;70.90;;
32501;SDS011;18952;52.516;13.460;2024-01-10T06:52:44;103.90;;;71.63;;
32501;SDS011;18952;52.516;13.460;2024-01-10T06:55:14;105.95;;;72.05;;
32501;SDS011;18952;52.516;13.460;2024-01-10T06:57:45;108.63;;;72.65;;
32501;SDS011;18952;52.516;13.460;2024-01-10T07:00:14;99.38;;;70.53;;
32501;SDS011;18952;52.516;13.460;2024-01-10T07:02:41;106.07;;;72.38;;
32501;SDS011;18952;52.516;13.460;2024-01-10T07:05:09;110.60;;;75.90;;
32501;SDS011;18952;52.516;13.460;2024-01-10T07:07:37;110.05;;;73.97;;
32501;SDS011;18952;52.516;13.460;2024-01-10T07:10:04;104.57;;;73.27;;
32501;SDS011;18952;52.516;13.460;2024-01-10T07:12:33;111.43;;;76.20;;
32501;SDS011;18952;52.516;13.460;2024-01-10T07:15:00;111.00;;;73.47;;
32501;SDS011;18952;52.516;13.460;2024-01-10T07:17:28;112.43;;;75.45;;
32501;SDS011;18952;52.516;13.460;2024-01-10T07:19:55;114.03;;;76.15;;
32501;SDS011;18952;52.516;13.460;2024-01-10T07:22:24;106.78;;;75.13;;
32501;SDS011;18952;52.516;13.460;2024-01-10T07:24:54;110.35;;;74.65;;
32501;SDS011;18952;52.516;13.460;2024-01-10T07:27:24;105.55;;;72.43;;
32501;SDS011;18952;52.516;13.460;2024-01-10T07:29:51;104.57;;;71.90;;
32501;SDS011;18952;52.516;13.460;2024-01-10T07:32:19;109.50;;;72.57;;
32501;SDS011;18952;52.516;13.460;2024-01-10T07:34:46;103.83;;;73.13;;
32501;SDS011;18952;52.516;13.460;2024-01-10T07:37:14;116.67;;;75.40;;
32501;SDS011;18952;52.516;13.460;2024-01-10T07:39:41;108.57;;;73.30;;
32501;SDS011;18952;52.516;13.460;2024-01-10T07:42:11;103.60;;;72.25;;
32501;SDS011;18952;52.516;13.460;2024-01-10T07:44:39;105.30;;;72.75;;
32501;SDS011;18952;52.516;13.460;2024-01-10T07:47:07;104.87;;;71.13;;
32501;SDS011;18952;52.516;13.460;2024-01-10T07:49:35;109.93;;;72.65;;
32501;SDS011;18952;52.516;13.460;2024-01-10T07:52:03;110.65;;;73.90;;
32501;SDS011;18952;52.516;13.460;2024-01-10T07:54:30;107.13;;;73.15;;
32501;SDS011;18952;52.516;13.460;2024-01-10T07:56:58;110.75;;;73.55;;
32501;SDS011;18952;52.516;13.460;2024-01-10T07:59:25;102.00;;;71.22;;
32501;SDS011;18952;52.516;13.460;2024-01-10T08:01:59;113.67;;;72.43;;
32501;SDS011;18952;52.516;13.460;2024-01-10T08:04:26;104.75;;;72.15;;
32501;SDS011;18952;52.516;13.460;2024-01-10T08:06:54;104.70;;;71.07;;
32501;SDS011;18952;52.516;13.460;2024-01-10T08:09:22;111.57;;;73.03;;
32501;SDS011;18952;52.516;13.460;2024-01-10T08:11:49;111.22;;;71.88;;
32501;SDS011;18952;52.516;13.460;2024-01-10T08:14:17;109.28;;;73.43;;
32501;SDS011;18952;52.516;13.460;2024-01-10T08:16:45;112.90;;;73.67;;
32501;SDS011;18952;52.516;13.460;2024-01-10T08:19:16;106.28;;;73.60;;
32501;SDS011;18952;52.516;13.460;2024-01-10T08:21:43;103.53;;;72.03;;
32501;SDS011;18952;52.516;13.460;2024-01-10T08:24:11;105.78;;;72.70;;
32501;SDS011;18952;52.516;13.460;2024-01-10T08:26:39;114.00;;;74.90;;
32501;SDS011;18952;52.516;13.460;2024-01-10T08:29:07;112.80;;;76.30;;
32501;SDS011;18952;52.516;13.460;2024-01-10T08:31:35;99.63;;;71.63;;
32501;SDS011;18952;52.516;13.460;2024-01-10T08:34:04;109.70;;;72.00;;
32501;SDS011;18952;52.516;13.460;2024-01-10T08:36:32;110.63;;;71.97;;
32501;SDS011;18952;52.516;13.460;2024-01-10T08:38:59;109.17;;;72.73;;
32501;SDS011;18952;52.516;13.460;2024-01-10T08:41:28;119.50;;;80.00;;
32501;SDS011;18952;52.516;13.460;2024-01-10T08:43:55;109.45;;;73.03;;
32501;SDS011;18952;52.516;13.460;2024-01-10T08:46:24;107.70;;;72.03;;
32501;SDS011;18952;52.516;13.460;2024-01-10T08:48:53;107.70;;;73.47;;
32501;SDS011;18952;52.516;13.460;2024-01-10T08:51:20;107.30;;;73.73;;
32501;SDS011;18952;52.516;13.460;2024-01-10T08:53:48;114.07;;;74.32;;
32501;SDS011;18952;52.516;13.460;2024-01-10T08:56:18;101.45;;;73.15;;
32501;SDS011;18952;52.516;13.460;2024-01-10T08:58:45;112.28;;;75.88;;
32501;SDS011;18952;52.516;13.460;2024-01-10T09:01:12;126.22;;;74.35;;
32501;SDS011;18952;52.516;13.460;2024-01-10T09:03:40;117.70;;;73.57;;
32501;SDS011;18952;52.516;13.460;2024-01-10T09:06:08;110.80;;;73.37;;
32501;SDS011;18952;52.516;13.460;2024-01-10T09:08:38;109.28;;;71.93;;
32501;SDS011;18952;52.516;13.460;2024-01-10T09:11:07;105.30;;;71.03;;
32501;SDS011;18952;52.516;13.460;2024-01-10T09:13:36;109.72;;;70.47;;
32501;SDS011;18952;52.516;13.460;2024-01-10T09:16:03;102.50;;;69.68;;
32501;SDS011;18952;52.516;13.460;2024-01-10T09:18:32;103.18;;;67.32;;
32501;SDS011;18952;52.516;13.460;2024-01-10T09:20:59;108.33;;;68.47;;
32501;SDS011;18952;52.516;13.460;2024-01-10T09:23:26;102.23;;;67.33;;
32501;SDS011;18952;52.516;13.460;2024-01-10T09:25:55;96.10;;;65.63;;
32501;SDS011;18952;52.516;13.460;2024-01-10T09:28:23;103.90;;;65.77;;
32501;SDS011;18952;52.516;13.460;2024-01-10T09:30:50;96.30;;;65.07;;
32501;SDS011;18952;52.516;13.460;2024-01-10T09:33:18;96.15;;;64.03;;
32501;SDS011;18952;52.516;13.460;2024-01-10T09:35:46;99.85;;;64.13;;
32501;SDS011;18952;52.516;13.460;2024-01-10T09:38:13;95.65;;;64.15;;
32501;SDS011;18952;52.516;13.460;2024-01-10T09:40:43;101.03;;;62.72;;
32501;SDS011;18952;52.516;13.460;2024-01-10T09:43:11;95.68;;;61.70;;
32501;SDS011;18952;52.516;13.460;2024-01-10T09:45:43;95.90;;;60.88;;
32501;SDS011;18952;52.516;13.460;2024-01-10T09:48:14;88.57;;;62.63;;
32501;SDS011;18952;52.516;13.460;2024-01-10T09:50:43;94.33;;;61.50;;
32501;SDS011;18952;52.516;13.460;2024-01-10T09:53:16;90.35;;;62.70;;
32501;SDS011;18952;52.516;13.460;2024-01-10T09:55:49;108.75;;;68.63;;
32501;SDS011;18952;52.516;13.460;2024-01-10T09:58:17;104.40;;;69.25;;
32501;SDS011;18952;52.516;13.460;2024-01-10T10:00:46;99.57;;;67.82;;
32501;SDS011;18952;52.516;13.460;2024-01-10T10:03:13;96.13;;;65.93;;
32501;SDS011;18952;52.516;13.460;2024-01-10T10:05:43;102.75;;;68.35;;
32501;SDS011;18952;52.516;13.460;2024-01-10T10:08:11;105.53;;;68.63;;
32501;SDS011;18952;52.516;13.460;2024-01-10T10:10:43;89.03;;;64.32;;
32501;SDS011;18952;52.516;13.460;2024-01-10T10:13:11;95.72;;;65.20;;
32501;SDS011;18952;52.516;13.460;2024-01-10T10:16:02;100.13;;;65.72;;
32501;SDS011;18952;52.516;13.460;2024-01-10T10:18:31;97.20;;;66.10;;
32501;SDS011;18952;52.516;13.460;2024-01-10T10:21:13;97.15;;;65.25;;
32501;SDS011;18952;52.516;13.460;2024-01-10T10:23:56;94.63;;;62.90;;
32501;SDS011;18952;52.516;13.460;2024-01-10T10:26:29;93.82;;;62.83;;
32501;SDS011;18952;52.516;13.460;2024-01-10T10:29:00;96.38;;;61.35;;
32501;SDS011;18952;52.516;13.460;2024-01-10T10:31:27;98.55;;;63.20;;
32501;SDS011;18952;52.516;13.460;2024-01-10T10:33:56;97.63;;;63.13;;
32501;SDS011;18952;52.516;13.460;2024-01-10T10:36:30;95.67;;;61.20;;
32501;SDS011;18952;52.516;13.460;2024-01-10T10:38:59;94.13;;;61.33;;
32501;SDS011;18952;52.516;13.460;2024-01-10T10:41:27;90.15;;;61.15;;
32501;SDS011;18952;52.516;13.460;2024-01-10T10:43:57;82.70;;;57.58;;
32501;SDS011;18952;52.516;13.460;2024-01-10T10:46:26;84.77;;;57.37;;
32501;SDS011;18952;52.516;13.460;2024-01-10T10:48:56;86.87;;;56.17;;
32501;SDS011;18952;52.516;13.460;2024-01-10T10:51:33;70.82;;;50.42;;
32501;SDS011;18952;52.516;13.460;2024-01-10T10:54:01;73.50;;;50.90;;
32501;SDS011;18952;52.516;13.460;2024-01-10T10:56:33;79.47;;;51.50;;
32501;SDS011;18952;52.516;13.460;2024-01-10T10:59:00;74.05;;;48.83;;
32501;SDS011;18952;52.516;13.460;2024-01-10T11:01:31;70.10;;;48.80;;
32501;SDS011;18952;52.516;13.460;2024-01-10T11:04:00;76.25;;;50.17;;
32501;SDS011;18952;52.516;13.460;2024-01-10T11:06:28;73.68;;;48.33;;
32501;SDS011;18952;52.516;13.460;2024-01-10T11:08:59;74.53;;;48.05;;
32501;SDS011;18952;52.516;13.460;2024-01-10T11:26:07;66.45;;;45.67;;
32501;SDS011;18952;52.516;13.460;2024-01-10T11:28:35;77.70;;;47.47;;
32501;SDS011;18952;52.516;13.460;2024-01-10T11:31:06;74.82;;;47.83;;
32501;SDS011;18952;52.516;13.460;2024-01-10T11:33:36;65.45;;;43.53;;
32501;SDS011;18952;52.516;13.460;2024-01-10T11:36:12;68.85;;;43.92;;
32501;SDS011;18952;52.516;13.460;2024-01-10T11:38:54;71.25;;;43.30;;
32501;SDS011;18952;52.516;13.460;2024-01-10T11:41:34;61.53;;;43.28;;
32501;SDS011;18952;52.516;13.460;2024-01-10T11:46:52;63.25;;;40.28;;
32501;SDS011;18952;52.516;13.460;2024-01-10T11:49:21;64.47;;;41.22;;
32501;SDS011;18952;52.516;13.460;2024-01-10T11:51:50;58.15;;;38.35;;
32501;SDS011;18952;52.516;13.460;2024-01-10T11:59:46;62.75;;;42.05;;
32501;SDS011;18952;52.516;13.460;2024-01-10T12:02:15;68.38;;;42.83;;
32501;SDS011;18952;52.516;13.460;2024-01-10T12:04:44;64.20;;;41.50;;
32501;SDS011;18952;52.516;13.460;2024-01-10T12:07:16;65.38;;;42.63;;
32501;SDS011;18952;52.516;13.460;2024-01-10T12:09:55;59.35;;;41.25;;
32501;SDS011;18952;52.516;13.460;2024-01-10T12:12:23;63.88;;;41.13;;
32501;SDS011;18952;52.516;13.460;2024-01-10T12:14:52;58.70;;;40.03;;
32501;SDS011;18952;52.516;13.460;2024-01-10T12:17:19;62.83;;;41.65;;
32501;SDS011;18952;52.516;13.460;2024-01-10T12:19:47;65.70;;;40.38;;
32501;SDS011;18952;52.516;13.460;2024-01-10T12:22:18;59.85;;;40.10;;
32501;SDS011;18952;52.516;13.460;2024-01-10T12:24:49;61.97;;;40.67;;
32501;SDS011;18952;52.516;13.460;2024-01-10T12:27:19;62.45;;;41.05;;
32501;SDS011;18952;52.516;13.460;2024-01-10T12:29:51;64.15;;;42.78;;
32501;SDS011;18952;52.516;13.460;2024-01-10T12:32:27;64.20;;;41.67;;
32501;SDS011;18952;52.516;13.460;2024-01-10T12:34:57;60.60;;;40.53;;
32501;SDS011;18952;52.516;13.460;2024-01-10T12:37:27;65.07;;;40.70;;
32501;SDS011;18952;52.516;13.460;2024-01-10T12:39:54;65.43;;;39.83;;
32501;SDS011;18952;52.516;13.460;2024-01-10T12:42:21;61.78;;;40.45;;
32501;SDS011;18952;52.516;13.460;2024-01-10T12:44:54;63.20;;;40.83;;
32501;SDS011;18952;52.516;13.460;2024-01-10T12:47:24;64.85;;;40.88;;
32501;SDS011;18952;52.516;13.460;2024-01-10T12:49:53;62.53;;;40.40;;
32501;SDS011;18952;52.516;13.460;2024-01-10T12:52:20;61.90;;;39.95;;
32501;SDS011;18952;52.516;13.460;2024-01-10T12:54:51;58.88;;;39.35;;
32501;SDS011;18952;52.516;13.460;2024-01-10T12:57:19;62.60;;;38.80;;
32501;SDS011;18952;52.516;13.460;2024-01-10T12:59:47;60.47;;;39.35;;
32501;SDS011;18952;52.516;13.460;2024-01-10T13:02:15;55.30;;;38.15;;
32501;SDS011;18952;52.516;13.460;2024-01-10T13:04:45;54.40;;;38.55;;
32501;SDS011;18952;52.516;13.460;2024-01-10T13:07:14;53.65;;;37.85;;
32501;SDS011;18952;52.516;13.460;2024-01-10T13:09:42;56.22;;;37.83;;
32501;SDS011;18952;52.516;13.460;2024-01-10T13:12:08;53.15;;;36.80;;
32501;SDS011;18952;52.516;13.460;2024-01-10T13:14:37;56.95;;;37.28;;
32501;SDS011;18952;52.516;13.460;2024-01-10T13:17:03;64.63;;;36.03;;
32501;SDS011;18952;52.516;13.460;2024-01-10T13:19:32;56.00;;;36.00;;
32501;SDS011;18952;52.516;13.460;2024-01-10T13:21:59;55.38;;;35.65;;
32501;SDS011;18952;52.516;13.460;2024-01-10T13:24:26;50.92;;;36.00;;
32501;SDS011;18952;52.516;13.460;2024-01-10T13:26:53;57.15;;;35.85;;
32501;SDS011;18952;52.516;13.460;2024-01-10T13:29:23;63.35;;;36.83;;
32501;SDS011;18952;52.516;13.460;2024-01-10T13:31:51;60.40;;;37.85;;
32501;SDS011;18952;52.516;13.460;2024-01-10T13:34:20;58.35;;;37.65;;
32501;SDS011;18952;52.516;13.460;2024-01-10T13:36:51;53.78;;;35.70;;
32501;SDS011;18952;52.516;13.460;2024-01-10T13:39:19;54.78;;;36.97;;
32501;SDS011;18952;52.516;13.460;2024-01-10T13:41:47;58.38;;;36.78;;
32501;SDS011;18952;52.516;13.460;2024-01-10T13:44:14;52.40;;;36.78;;
32501;SDS011;18952;52.516;13.460;2024-01-10T13:46:42;55.10;;;37.47;;
32501;SDS011;18952;52.516;13.460;2024-01-10T13:49:09;58.13;;;39.90;;
32501;SDS011;18952;52.516;13.460;2024-01-10T13:51:36;56.28;;;38.90;;
32501;SDS011;18952;52.516;13.460;2024-01-10T13:54:08;61.83;;;39.25;;
32501;SDS011;18952;52.516;13.460;2024-01-10T13:56:34;60.45;;;38.85;;
32501;SDS011;18952;52.516;13.460;2024-01-10T13:59:03;59.30;;;38.72;;
32501;SDS011;18952;52.516;13.460;2024-01-10T14:01:30;54.60;;;37.92;;
32501;SDS011;18952;52.516;13.460;2024-01-10T14:03:58;53.90;;;37.13;;
32501;SDS011;18952;52.516;13.460;2024-01-10T14:06:25;57.97;;;37.63;;
32501;SDS011;18952;52.516;13.460;2024-01-10T14:08:53;50.63;;;35.50;;
32501;SDS011;18952;52.516;13.460;2024-01-10T14:11:20;54.85;;;35.50;;
32501;SDS011;18952;52.516;13.460;2024-01-10T14:13:48;56.83;;;39.37;;
32501;SDS011;18952;52.516;13.460;2024-01-10T14:16:21;55.20;;;35.47;;
32501;SDS011;18952;52.516;13.460;2024-01-10T14:18:50;52.33;;;34.92;;
32501;SDS011;18952;52.516;13.460;2024-01-10T14:21:17;59.28;;;35.03;;
32501;SDS011;18952;52.516;13.460;2024-01-10T14:23:45;54.92;;;33.72;;
32501;SDS011;18952;52.516;13.460;2024-01-10T14:26:14;53.67;;;33.55;;
32501;SDS011;18952;52.516;13.460;2024-01-10T14:28:42;49.78;;;34.13;;
32501;SDS011;18952;52.516;13.460;2024-01-10T14:31:11;53.53;;;32.00;;
32501;SDS011;18952;52.516;13.460;2024-01-10T14:33:53;46.25;;;30.80;;
32501;SDS011;18952;52.516;13.460;2024-01-10T14:36:20;48.90;;;29.93;;
32501;SDS011;18952;52.516;13.460;2024-01-10T14:38:49;44.58;;;29.00;;